Time;durP1;ratioP1;P1;durP2;ratioP2;P2;SDS_P1;SDS_P2;PMS_P1;PMS_P2;Temp;Humidity;BMP_temperature;BMP_pressure;BME280_temperature;BME280_humidity;BME280_pressure;Samples;Min_cycle;Max_cycle;Signal;HPM_P1;HPM_P2
2021/12/29 00:00:38;;;;;;;26.65;13.48;;;;;;;6.90;100.00;94320.72;5096015;28;20123;-62
2021/12/29 00:03:05;;;;;;;29.52;13.52;;;;;;;6.97;100.00;94318.81;5103896;28;20046;-61
2021/12/29 00:05:32;;;;;;;32.22;13.20;;;;;;;7.00;100.00;94323.53;5098091;28;20032;-61
2021/12/29 00:08:00;;;;;;;36.30;16.23;;;;;;;6.94;100.00;94314.06;5098221;28;20128;-62
2021/12/29 00:10:27;;;;;;;35.33;15.00;;;;;;;7.03;100.00;94327.50;5097977;28;20055;-61
2021/12/29 00:12:55;;;;;;;31.50;13.57;;;;;;;7.03;100.00;94328.28;5103924;28;20048;-62
2021/12/29 00:15:25;;;;;;;29.13;13.88;;;;;;;7.04;100.00;94329.06;5101489;28;20051;-62
2021/12/29 00:17:53;;;;;;;29.77;15.52;;;;;;;7.08;100.00;94325.81;5101432;28;20521;-62
2021/12/29 00:20:28;;;;;;;28.75;14.45;;;;;;;7.08;100.00;94325.81;5097283;28;20040;-62
2021/12/29 00:23:00;;;;;;;28.48;14.18;;;;;;;7.07;100.00;94324.25;5096016;28;20307;-62
2021/12/29 00:25:27;;;;;;;26.33;13.98;;;;;;;7.11;100.00;94326.41;5101231;28;20374;-62
2021/12/29 00:27:59;;;;;;;27.40;13.07;;;;;;;7.11;100.00;94323.81;5101330;28;20512;-62
2021/12/29 00:30:26;;;;;;;25.83;13.57;;;;;;;7.10;100.00;94327.41;5100112;28;20051;-61
2021/12/29 00:32:54;;;;;;;23.48;12.13;;;;;;;7.11;100.00;94318.63;5101855;28;20043;-62
2021/12/29 00:35:41;;;;;;;29.00;14.00;;;;;;;7.15;100.00;94311.97;5099495;28;20406;-62
2021/12/29 00:38:27;;;;;;;29.55;14.52;;;;;;;7.12;100.00;94320.22;5099746;28;20058;-62
2021/12/29 00:41:15;;;;;;;26.05;12.35;;;;;;;7.06;100.00;94306.34;5100320;28;20044;-61
2021/12/29 00:43:51;;;;;;;29.50;12.43;;;;;;;7.05;100.00;94310.72;5098256;28;20050;-62
2021/12/29 00:46:29;;;;;;;30.67;13.75;;;;;;;7.01;100.00;94309.59;5099487;28;20055;-59
2021/12/29 00:48:57;;;;;;;25.55;12.50;;;;;;;7.05;100.00;94305.53;5097983;28;20040;-62
2021/12/29 00:51:23;;;;;;;30.60;14.10;;;;;;;7.03;100.00;94307.56;5097723;28;20040;-62
2021/12/29 00:53:50;;;;;;;25.85;12.45;;;;;;;7.00;100.00;94302.81;5099990;28;20044;-62
2021/12/29 00:56:17;;;;;;;29.02;12.93;;;;;;;7.00;100.00;94318.34;5103229;28;20524;-61
2021/12/29 00:58:44;;;;;;;24.02;11.85;;;;;;;7.01;100.00;94314.78;5099914;28;20032;-62
2021/12/29 01:01:11;;;;;;;28.73;12.68;;;;;;;6.98;100.00;94317.78;5101141;28;20039;-62
2021/12/29 01:03:38;;;;;;;33.13;13.55;;;;;;;7.02;100.00;94316.38;5095811;28;20879;-62
2021/12/29 01:06:06;;;;;;;27.02;12.02;;;;;;;7.11;100.00;94313.44;5102922;28;20046;-62
2021/12/29 01:08:33;;;;;;;24.80;12.25;;;;;;;7.11;100.00;94308.25;5099745;28;20035;-62
2021/12/29 01:11:00;;;;;;;30.88;12.20;;;;;;;7.01;100.00;94309.59;5103357;28;20047;-62
2021/12/29 01:13:33;;;;;;;25.55;12.82;;;;;;;7.03;100.00;94302.41;5094787;28;20052;-62
2021/12/29 01:18:33;;;;;;;28.52;13.48;;;;;;;7.00;100.00;94292.47;5100388;28;21666;-62
2021/12/29 01:21:01;;;;;;;27.98;13.82;;;;;;;6.97;100.00;94282.56;5096338;28;20052;-62
2021/12/29 01:23:28;;;;;;;31.50;14.50;;;;;;;6.95;100.00;94289.78;5098334;28;20432;-61
2021/12/29 01:25:55;;;;;;;37.55;15.07;;;;;;;6.86;100.00;94275.53;5098965;28;20060;-61
2021/12/29 01:28:22;;;;;;;24.42;12.18;;;;;;;6.89;100.00;94275.13;5099961;28;20036;-62
2021/12/29 01:30:50;;;;;;;29.00;13.15;;;;;;;6.92;100.00;94264.31;5093668;28;20039;-61
2021/12/29 01:33:17;;;;;;;31.02;13.23;;;;;;;6.86;100.00;94272.97;5097677;28;20504;-62
2021/12/29 01:35:43;;;;;;;26.75;12.57;;;;;;;6.81;100.00;94267.69;5095578;28;20043;-62
2021/12/29 01:38:10;;;;;;;32.88;14.35;;;;;;;6.85;100.00;94261.03;5097683;28;20047;-62
2021/12/29 01:40:38;;;;;;;30.70;13.30;;;;;;;6.86;100.00;94255.66;5096691;28;20090;-62
2021/12/29 01:43:07;;;;;;;25.70;12.13;;;;;;;6.84;100.00;94259.44;5099164;28;20039;-62
2021/12/29 01:45:34;;;;;;;28.95;13.88;;;;;;;6.84;100.00;94269.81;5097251;28;20125;-62
2021/12/29 01:48:03;;;;;;;26.42;12.85;;;;;;;6.82;100.00;94274.41;5096059;28;20065;-62
2021/12/29 01:50:31;;;;;;;29.42;12.30;;;;;;;6.84;100.00;94265.44;5099594;28;20058;-61
2021/12/29 01:53:06;;;;;;;32.58;12.30;;;;;;;6.82;100.00;94258.88;5096327;28;20516;-61
2021/12/29 01:55:33;;;;;;;28.38;13.07;;;;;;;6.86;100.00;94255.66;5094417;28;20073;-62
2021/12/29 01:58:01;;;;;;;32.45;13.27;;;;;;;6.85;100.00;94248.88;5095957;28;20043;-61
2021/12/29 02:00:30;;;;;;;30.95;11.90;;;;;;;6.83;100.00;94244.94;5095184;28;20040;-62
2021/12/29 02:02:57;;;;;;;29.17;12.90;;;;;;;6.82;100.00;94245.94;5100622;28;20071;-62
2021/12/29 02:05:24;;;;;;;32.65;13.90;;;;;;;6.86;100.00;94244.47;5103151;28;20035;-61
2021/12/29 02:07:51;;;;;;;32.08;13.63;;;;;;;6.87;100.00;94251.25;5098961;28;20044;-62
2021/12/29 02:10:20;;;;;;;27.90;12.93;;;;;;;6.85;100.00;94237.75;5097638;28;20040;-62
2021/12/29 02:12:47;;;;;;;30.38;13.30;;;;;;;6.81;100.00;94236.63;5094003;28;20034;-61
2021/12/29 02:15:14;;;;;;;33.97;14.27;;;;;;;6.81;100.00;94232.22;5097476;28;20067;-62
2021/12/29 02:17:41;;;;;;;32.75;14.00;;;;;;;6.87;100.00;94225.38;5097252;28;20051;-62
2021/12/29 02:20:11;;;;;;;24.75;12.43;;;;;;;6.79;100.00;94223.91;5094354;28;20035;-61
2021/12/29 02:22:45;;;;;;;30.80;13.60;;;;;;;6.84;100.00;94220.63;5099487;28;20123;-62
2021/12/29 02:27:48;;;;;;;31.98;13.48;;;;;;;6.78;100.00;94211.94;5095923;28;20032;-62
2021/12/29 02:30:17;;;;;;;31.95;12.45;;;;;;;6.74;100.00;94200.47;5096531;28;20043;-62
2021/12/29 02:32:45;;;;;;;23.38;11.27;;;;;;;6.69;100.00;94188.19;5095381;28;20043;-59
2021/12/29 02:35:15;;;;;;;33.67;13.38;;;;;;;6.65;100.00;94187.06;5094609;28;20047;-62
2021/12/29 02:37:43;;;;;;;29.83;13.98;;;;;;;6.57;100.00;94182.22;5094672;28;20028;-62
2021/12/29 02:40:11;;;;;;;28.30;13.68;;;;;;;6.62;100.00;94182.31;5094343;28;20097;-61
2021/12/29 02:42:41;;;;;;;31.35;15.20;;;;;;;6.60;100.00;94179.16;5096332;28;21864;-62
2021/12/29 02:45:12;;;;;;;28.65;15.23;;;;;;;6.60;100.00;94168.81;5097323;28;20040;-62
2021/12/29 02:47:40;;;;;;;32.55;14.35;;;;;;;6.57;100.00;94169.28;5098307;28;20050;-62
2021/12/29 02:50:07;;;;;;;34.35;14.85;;;;;;;6.57;100.00;94169.28;5095629;28;20039;-62
2021/12/29 02:52:35;;;;;;;37.85;15.90;;;;;;;6.50;100.00;94169.38;5098500;28;20039;-62
2021/12/29 02:55:02;;;;;;;35.88;16.08;;;;;;;6.45;100.00;94160.69;5093080;28;20044;-61
2021/12/29 02:57:29;;;;;;;40.35;16.42;;;;;;;6.46;100.00;94170.03;5095240;28;20036;-62
2021/12/29 02:59:55;;;;;;;37.67;16.58;;;;;;;6.44;100.00;94184.97;5094353;28;20040;-61
2021/12/29 03:02:22;;;;;;;33.70;14.07;;;;;;;6.43;100.00;94178.25;5094131;28;20040;-61
2021/12/29 03:04:50;;;;;;;36.58;15.52;;;;;;;6.29;100.00;94162.09;5094821;28;20134;-62
2021/12/29 03:07:16;;;;;;;34.95;13.52;;;;;;;6.37;100.00;94177.28;5101563;28;20044;-62
2021/12/29 03:09:43;;;;;;;40.83;14.93;;;;;;;6.37;100.00;94168.75;5096811;28;20035;-61
2021/12/29 03:12:10;;;;;;;34.83;15.27;;;;;;;6.38;100.00;94162.59;5094903;28;20345;-62
2021/12/29 03:14:37;;;;;;;37.15;14.20;;;;;;;6.38;100.00;94165.19;5096985;28;20048;-62
2021/12/29 03:17:04;;;;;;;37.80;13.52;;;;;;;6.39;100.00;94169.31;5094357;28;20574;-61
2021/12/29 03:19:31;;;;;;;41.53;15.55;;;;;;;6.36;100.00;94162.03;5097707;28;20447;-61
2021/12/29 03:21:58;;;;;;;40.30;14.82;;;;;;;6.34;100.00;94161.44;5097091;28;20452;-62
2021/12/29 03:24:24;;;;;;;38.03;14.38;;;;;;;6.31;100.00;94155.69;5100359;28;20051;-61
2021/12/29 03:26:51;;;;;;;34.67;15.27;;;;;;;6.26;100.00;94158.16;5100464;28;20497;-61
2021/12/29 03:29:18;;;;;;;40.80;13.35;;;;;;;6.26;100.00;94155.56;5099637;28;20047;-62
2021/12/29 03:31:46;;;;;;;40.45;14.65;;;;;;;6.22;100.00;94145.91;5100421;28;20045;-61
2021/12/29 03:34:15;;;;;;;44.83;14.93;;;;;;;6.25;100.00;94151.41;5097564;28;20043;-61
2021/12/29 03:36:42;;;;;;;32.58;12.45;;;;;;;6.26;100.00;94147.81;5100649;28;20081;-62
2021/12/29 03:39:10;;;;;;;39.10;14.27;;;;;;;6.26;100.00;94147.03;5100950;28;20111;-61
2021/12/29 03:41:37;;;;;;;34.60;13.23;;;;;;;6.21;100.00;94139.94;5099745;28;20047;-61
2021/12/29 03:44:05;;;;;;;30.67;13.77;;;;;;;6.23;100.00;94143.09;5100677;28;20412;-62
2021/12/29 03:46:33;;;;;;;39.15;13.95;;;;;;;6.23;100.00;94137.91;5100798;28;20090;-62
2021/12/29 03:49:00;;;;;;;34.90;13.63;;;;;;;6.21;100.00;94132.19;5101696;28;20133;-62
2021/12/29 03:51:27;;;;;;;27.70;12.00;;;;;;;6.23;100.00;94143.09;5099795;28;20055;-62
2021/12/29 03:53:54;;;;;;;32.58;13.23;;;;;;;6.26;100.00;94142.63;5102199;28;20043;-61
2021/12/29 03:56:21;;;;;;;26.58;12.25;;;;;;;6.25;100.00;94146.25;5098323;28;20051;-61
2021/12/29 03:58:48;;;;;;;29.92;11.77;;;;;;;6.23;100.00;94137.91;5101567;28;20040;-61
2021/12/29 04:01:16;;;;;;;21.02;8.98;;;;;;;6.26;100.00;94145.22;5100160;28;20044;-62
2021/12/29 04:03:46;;;;;;;29.88;11.65;;;;;;;6.27;100.00;94144.22;5096623;28;20119;-62
2021/12/29 04:06:16;;;;;;;21.95;9.07;;;;;;;6.36;100.00;94141.34;5099874;28;20036;-62
2021/12/29 04:08:44;;;;;;;26.17;10.52;;;;;;;6.36;100.00;94142.13;5095022;28;20055;-62
2021/12/29 04:11:13;;;;;;;20.77;9.27;;;;;;;6.35;100.00;94144.91;5100181;28;20089;-62
2021/12/29 04:13:40;;;;;;;23.17;10.25;;;;;;;6.35;100.00;94144.91;5096089;28;20032;-62
2021/12/29 04:16:15;;;;;;;25.75;10.10;;;;;;;6.43;100.00;94142.81;5099879;28;20493;-62
2021/12/29 04:18:55;;;;;;;19.42;9.30;;;;;;;6.47;100.00;94132.81;5095149;28;20110;-61
2021/12/29 04:21:22;;;;;;;19.85;9.15;;;;;;;6.48;100.00;94134.38;5100834;28;20040;-62
2021/12/29 04:23:49;;;;;;;21.45;11.00;;;;;;;6.53;100.00;94142.25;5098758;28;20083;-62
2021/12/29 04:26:19;;;;;;;25.55;11.00;;;;;;;6.55;100.00;94139.44;5099113;28;20050;-62
2021/12/29 04:28:45;;;;;;;28.13;11.40;;;;;;;6.58;100.00;94139.00;5099496;28;20513;-62
2021/12/29 04:31:12;;;;;;;21.92;9.60;;;;;;;6.59;100.00;94136.22;5101155;28;20524;-60
2021/12/29 04:33:39;;;;;;;25.15;11.00;;;;;;;6.53;100.00;94126.72;5095285;28;20055;-62
2021/12/29 04:36:08;;;;;;;26.42;12.45;;;;;;;6.62;100.00;94138.31;5093525;28;20182;-62
2021/12/29 04:38:36;;;;;;;29.00;13.93;;;;;;;6.64;100.00;94132.94;5097055;28;20051;-62
2021/12/29 04:41:03;;;;;;;28.70;13.15;;;;;;;6.60;100.00;94132.59;5102507;28;20036;-62
2021/12/29 04:43:30;;;;;;;35.33;14.20;;;;;;;6.59;100.00;94131.03;5101026;28;20093;-62
2021/12/29 04:45:57;;;;;;;31.00;13.95;;;;;;;6.64;100.00;94133.72;5098082;28;20138;-62
2021/12/29 04:48:25;;;;;;;36.00;17.05;;;;;;;6.64;100.00;94136.31;5100478;28;20046;-61
2021/12/29 04:51:03;;;;;;;37.72;19.27;;;;;;;6.65;100.00;94135.31;5099878;28;20047;-62
2021/12/29 04:53:31;;;;;;;30.30;14.32;;;;;;;6.63;100.00;94132.16;5098402;28;20048;-61
2021/12/29 04:55:58;;;;;;;32.08;15.68;;;;;;;6.60;100.00;94142.94;5100135;28;20044;-62
2021/12/29 04:58:25;;;;;;;28.80;13.70;;;;;;;6.62;100.00;94140.91;5097608;28;20043;-62
2021/12/29 05:00:54;;;;;;;31.27;14.15;;;;;;;6.65;100.00;94140.47;5099416;28;20039;-62
2021/12/29 05:03:21;;;;;;;26.67;11.80;;;;;;;6.62;100.00;94135.75;5096900;28;20040;-62
2021/12/29 05:08:24;;;;;;;21.45;10.35;;;;;;;6.68;100.00;94140.03;5102435;28;20040;-62
2021/12/29 05:08:44;;;;;;;20.65;10.68;;;;;;;6.71;100.00;94149.16;5102768;28;20464;-62
2021/12/29 05:11:15;;;;;;;21.13;10.32;;;;;;;6.69;100.00;94151.97;5097948;28;20480;-62
2021/12/29 05:13:44;;;;;;;22.95;10.57;;;;;;;6.72;100.00;94149.94;5095298;28;20058;-62
2021/12/29 05:16:11;;;;;;;17.95;9.10;;;;;;;6.74;100.00;94147.94;5095013;28;20048;-61
2021/12/29 05:18:38;;;;;;;21.13;10.52;;;;;;;6.76;100.00;94148.50;5100129;28;20066;-61
2021/12/29 05:21:07;;;;;;;21.90;10.23;;;;;;;6.76;100.00;94151.09;5098585;28;20039;-60
2021/12/29 05:23:34;;;;;;;24.60;10.43;;;;;;;6.76;100.00;94156.25;5101689;28;20039;-61
2021/12/29 05:26:01;;;;;;;21.23;8.52;;;;;;;6.81;100.00;94149.41;5098544;28;20104;-61
2021/12/29 05:28:28;;;;;;;21.40;8.80;;;;;;;6.76;100.00;94148.50;5098796;28;20032;-60
2021/12/29 05:30:55;;;;;;;20.80;10.27;;;;;;;6.73;100.00;94141.94;5097581;28;20047;-61
2021/12/29 05:33:23;;;;;;;18.88;9.35;;;;;;;6.76;100.00;94148.50;5093828;28;20059;-62
2021/12/29 05:35:50;;;;;;;22.27;10.10;;;;;;;6.74;100.00;94150.53;5099848;28;20040;-62
2021/12/29 05:38:17;;;;;;;18.20;8.55;;;;;;;6.70;100.00;94156.13;5097514;28;20052;-62
2021/12/29 05:40:45;;;;;;;24.45;10.60;;;;;;;6.73;100.00;94164.47;5093993;28;20043;-62
2021/12/29 05:43:12;;;;;;;18.02;8.57;;;;;;;6.78;100.00;94174.94;5093148;28;20052;-61
2021/12/29 05:45:39;;;;;;;19.50;10.77;;;;;;;6.73;100.00;94159.28;5095619;28;20138;-62
2021/12/29 05:48:06;;;;;;;20.15;10.18;;;;;;;6.85;100.00;94176.41;5094084;28;20048;-62
2021/12/29 05:50:33;;;;;;;24.13;11.05;;;;;;;6.89;100.00;94176.75;5094633;28;20036;-62
2021/12/29 05:53:01;;;;;;;22.33;11.05;;;;;;;6.89;100.00;94176.75;5095538;28;20036;-62
2021/12/29 05:55:29;;;;;;;24.33;9.73;;;;;;;6.92;100.00;94185.88;5094844;28;20052;-62
2021/12/29 05:57:56;;;;;;;26.38;11.05;;;;;;;6.93;100.00;94183.03;5089534;28;20502;-62
2021/12/29 06:00:25;;;;;;;22.75;10.27;;;;;;;6.92;100.00;94184.06;5087480;28;20040;-62
2021/12/29 06:02:54;;;;;;;19.23;8.48;;;;;;;6.93;100.00;94179.66;5090731;28;20561;-62
2021/12/29 06:05:21;;;;;;;22.60;10.13;;;;;;;6.93;100.00;94177.88;5089271;28;20127;-62
2021/12/29 06:07:49;;;;;;;21.92;9.38;;;;;;;6.92;100.00;94181.47;5088581;28;20043;-62
2021/12/29 06:10:16;;;;;;;22.27;10.38;;;;;;;6.95;100.00;94178.47;5088888;28;20054;-62
2021/12/29 06:12:43;;;;;;;18.33;9.18;;;;;;;6.86;100.00;94177.19;5090109;28;20048;-61
2021/12/29 06:15:10;;;;;;;22.65;9.93;;;;;;;6.84;100.00;94174.03;5098529;28;20035;-62
2021/12/29 06:17:38;;;;;;;23.48;10.75;;;;;;;6.83;100.00;94162.13;5100305;28;20050;-62
2021/12/29 06:20:08;;;;;;;21.88;10.20;;;;;;;6.90;100.00;94175.75;5099484;28;20125;-62
2021/12/29 06:22:35;;;;;;;22.00;9.77;;;;;;;6.82;100.00;94170.88;5099500;28;20050;-62
2021/12/29 06:25:05;;;;;;;22.42;10.63;;;;;;;6.82;100.00;94176.84;5096805;28;20047;-62
2021/12/29 06:27:32;;;;;;;24.17;11.68;;;;;;;6.86;100.00;94177.19;5097543;28;20122;-61
2021/12/29 06:29:59;;;;;;;21.40;10.82;;;;;;;6.88;100.00;94175.19;5098330;28;20035;-62
2021/12/29 06:32:26;;;;;;;19.75;9.90;;;;;;;6.84;100.00;94174.03;5100356;28;20538;-62
2021/12/29 06:34:54;;;;;;;16.23;7.47;;;;;;;6.85;100.00;94180.78;5097103;28;20420;-61
2021/12/29 06:37:22;;;;;;;20.25;9.05;;;;;;;6.88;100.00;94175.19;5095914;28;20048;-61
2021/12/29 06:39:49;;;;;;;16.77;8.63;;;;;;;6.82;100.00;94179.44;5099448;28;20415;-61
2021/12/29 06:42:16;;;;;;;18.50;10.02;;;;;;;6.84;100.00;94189.56;5095446;28;20119;-62
2021/12/29 06:44:46;;;;;;;15.90;7.15;;;;;;;6.82;100.00;94182.00;5090105;28;20601;-62
2021/12/29 06:47:13;;;;;;;18.48;8.75;;;;;;;6.88;100.00;94182.94;5093300;28;20044;-62
2021/12/29 06:49:41;;;;;;;14.18;8.00;;;;;;;6.91;100.00;94187.66;5096080;28;20039;-61
2021/12/29 06:52:08;;;;;;;11.35;6.45;;;;;;;6.93;100.00;94187.44;5092605;28;20413;-62
2021/12/29 06:54:36;;;;;;;13.05;6.47;;;;;;;6.94;100.00;94187.22;5097590;28;20048;-62
2021/12/29 06:57:04;;;;;;;12.52;6.80;;;;;;;6.97;100.00;94194.56;5098524;28;20032;-61
2021/12/29 06:59:31;;;;;;;14.68;6.53;;;;;;;7.00;100.00;94199.25;5095665;28;20032;-62
2021/12/29 07:01:58;;;;;;;11.90;6.03;;;;;;;7.04;100.00;94197.00;5099756;28;20039;-62
2021/12/29 07:04:25;;;;;;;11.50;5.28;;;;;;;7.01;100.00;94200.84;5093983;28;20370;-61
2021/12/29 07:06:53;;;;;;;14.05;6.40;;;;;;;7.07;100.00;94199.94;5093702;28;20046;-62
2021/12/29 07:09:21;;;;;;;10.35;5.65;;;;;;;7.15;100.00;94200.63;5098415;28;20051;-62
2021/12/29 07:11:49;;;;;;;15.73;6.78;;;;;;;7.16;100.00;94197.03;5097069;28;20561;-61
2021/12/29 07:14:19;;;;;;;14.77;7.88;;;;;;;7.22;100.00;94201.31;5101649;28;20528;-62
2021/12/29 07:16:47;;;;;;;12.48;7.05;;;;;;;7.26;100.00;94205.03;5095349;28;20417;-62
2021/12/29 07:19:15;;;;;;;15.15;7.32;;;;;;;7.31;100.00;94210.34;5098264;28;20059;-62
2021/12/29 07:21:43;;;;;;;15.73;7.30;;;;;;;7.41;100.00;94205.38;5095302;28;20070;-62
2021/12/29 07:24:11;;;;;;;15.05;7.15;;;;;;;7.41;100.00;94205.38;5096048;28;20043;-62
2021/12/29 07:26:39;;;;;;;10.57;6.43;;;;;;;7.53;100.00;94207.19;5101942;28;20428;-62
2021/12/29 07:29:06;;;;;;;15.88;5.95;;;;;;;7.56;100.00;94201.53;5099654;28;20036;-62
2021/12/29 07:31:33;;;;;;;15.52;7.35;;;;;;;7.60;100.00;94202.66;5097344;28;20066;-62
2021/12/29 07:34:19;;;;;;;11.80;6.18;;;;;;;7.67;100.00;94203.34;5097657;28;20060;-62
2021/12/29 07:36:46;;;;;;;12.50;6.85;;;;;;;7.75;100.00;94210.75;5098708;28;20036;-62
2021/12/29 07:39:14;;;;;;;14.23;6.15;;;;;;;7.78;100.00;94205.13;5104040;28;20615;-62
2021/12/29 07:41:42;;;;;;;17.45;7.38;;;;;;;7.76;100.00;94206.34;5102163;28;20505;-62
2021/12/29 07:44:17;;;;;;;9.52;5.57;;;;;;;7.76;100.00;94207.16;5077766;28;20096;-61
2021/12/29 07:46:48;;;;;;;15.52;7.63;;;;;;;7.79;100.00;94200.72;5100917;28;20040;-62
2021/12/29 07:49:15;;;;;;;10.23;6.18;;;;;;;7.80;100.00;94203.06;5099452;28;20044;-62
2021/12/29 07:51:43;;;;;;;17.92;8.32;;;;;;;7.82;100.00;94208.81;5100648;28;20043;-61
2021/12/29 07:54:10;;;;;;;13.70;6.57;;;;;;;7.77;100.00;94203.53;5099539;28;20051;-62
2021/12/29 07:56:37;;;;;;;13.05;6.28;;;;;;;7.84;100.00;94209.38;5100724;28;20522;-62
2021/12/29 07:59:04;;;;;;;13.25;6.35;;;;;;;7.81;100.00;94202.06;5101566;28;20389;-61
2021/12/29 08:01:32;;;;;;;12.27;6.18;;;;;;;7.77;100.00;94206.13;5103455;28;20044;-62
2021/12/29 08:03:59;;;;;;;10.55;5.35;;;;;;;7.81;100.00;94204.66;5099529;28;20032;-62
2021/12/29 08:06:27;;;;;;;10.50;5.20;;;;;;;7.79;100.00;94211.84;5100815;28;20048;-61
2021/12/29 08:08:54;;;;;;;10.13;4.25;;;;;;;7.75;100.00;94202.97;5101068;28;20043;-62
2021/12/29 08:11:21;;;;;;;10.05;5.10;;;;;;;7.73;100.00;94205.00;5099427;28;20040;-62
2021/12/29 08:13:49;;;;;;;6.55;4.20;;;;;;;7.76;100.00;94201.97;5099354;28;20040;-62
2021/12/29 08:16:15;;;;;;;9.40;4.50;;;;;;;7.73;100.00;94207.59;5096807;28;20043;-63
2021/12/29 08:18:42;;;;;;;9.38;4.75;;;;;;;7.67;100.00;94192.97;5095914;28;20052;-63
2021/12/29 08:21:09;;;;;;;6.85;4.35;;;;;;;7.76;100.00;94207.16;5093472;28;20093;-63
2021/12/29 08:23:36;;;;;;;10.45;5.13;;;;;;;7.70;100.00;94215.81;5074665;28;20424;-63
2021/12/29 08:26:04;;;;;;;11.90;5.38;;;;;;;7.73;100.00;94212.78;5094453;28;20040;-63
2021/12/29 08:28:30;;;;;;;8.38;5.13;;;;;;;7.75;100.00;94215.94;5093414;28;20059;-61
2021/12/29 08:30:58;;;;;;;10.38;5.97;;;;;;;7.74;100.00;94214.38;5097042;28;20391;-62
2021/12/29 08:33:25;;;;;;;11.43;5.75;;;;;;;7.71;100.00;94214.03;5097986;28;20064;-62
2021/12/29 08:35:52;;;;;;;11.30;5.85;;;;;;;7.70;100.00;94212.44;5100415;28;20039;-62
2021/12/29 08:38:19;;;;;;;30.83;18.75;;;;;;;7.69;100.00;94214.25;5098008;28;20443;-62
2021/12/29 08:40:46;;;;;;;26.58;15.20;;;;;;;7.73;100.00;94207.59;5094244;28;20050;-63
2021/12/29 08:43:16;;;;;;;12.80;7.22;;;;;;;7.76;100.00;94207.16;5094152;28;20401;-62
2021/12/29 08:45:44;;;;;;;10.25;6.85;;;;;;;7.74;100.00;94214.38;5100533;28;20500;-62
2021/12/29 08:48:11;;;;;;;11.75;6.20;;;;;;;7.74;100.00;94214.38;5099105;28;20051;-62
2021/12/29 08:50:40;;;;;;;10.90;5.65;;;;;;;7.72;100.00;94200.81;5089950;28;20035;-62
2021/12/29 08:53:08;;;;;;;13.48;7.00;;;;;;;7.71;100.00;94209.63;5094835;28;20060;-63
2021/12/29 08:55:37;;;;;;;11.40;7.03;;;;;;;7.75;100.00;94200.38;5093040;28;20074;-63
2021/12/29 08:58:06;;;;;;;14.27;7.65;;;;;;;7.72;100.00;94200.03;5097984;28;20036;-63
2021/12/29 09:00:34;;;;;;;13.88;6.50;;;;;;;7.70;100.00;94205.44;5096371;28;20486;-63
2021/12/29 09:03:02;;;;;;;12.88;7.30;;;;;;;7.71;100.00;94199.25;5091433;28;20115;-63
2021/12/29 09:05:29;;;;;;;11.88;6.57;;;;;;;7.60;100.00;94197.47;5095621;28;20054;-62
2021/12/29 09:07:56;;;;;;;16.15;8.18;;;;;;;7.56;100.00;94196.34;5098115;28;20172;-63
2021/12/29 09:10:23;;;;;;;17.52;7.25;;;;;;;7.55;100.00;94197.38;5098270;28;20028;-63
2021/12/29 09:12:54;;;;;;;13.90;7.28;;;;;;;7.57;100.00;94192.75;5098461;28;20051;-63
2021/12/29 09:15:22;;;;;;;21.85;8.48;;;;;;;7.55;100.00;94194.78;5093943;28;20056;-63
2021/12/29 09:17:49;;;;;;;13.23;6.53;;;;;;;7.61;100.00;94183.50;5093459;28;20043;-62
2021/12/29 09:20:25;;;;;;;16.85;8.13;;;;;;;7.63;100.00;94176.28;5097229;28;20038;-63
2021/12/29 09:23:00;;;;;;;18.98;10.00;;;;;;;7.64;100.00;94176.06;5095564;28;20052;-63
2021/12/29 09:25:27;;;;;;;22.48;11.40;;;;;;;7.64;100.00;94172.69;5100169;28;20053;-63
2021/12/29 09:27:54;;;;;;;17.52;9.32;;;;;;;7.55;100.00;94158.50;5095295;28;20050;-63
2021/12/29 09:30:24;;;;;;;19.58;7.03;;;;;;;7.70;100.00;94176.94;5093108;28;20047;-64
2021/12/29 09:32:52;;;;;;;14.95;7.50;;;;;;;7.74;100.00;94172.91;5090724;28;20044;-63
2021/12/29 09:35:20;;;;;;;16.70;8.70;;;;;;;7.80;100.00;94174.56;5096321;28;20379;-63
2021/12/29 09:37:48;;;;;;;12.35;6.05;;;;;;;7.85;100.00;94169.47;5095804;28;20036;-62
2021/12/29 09:40:18;;;;;;;15.20;7.90;;;;;;;7.93;100.00;94164.94;5097625;28;20046;-62
2021/12/29 09:42:46;;;;;;;10.57;4.97;;;;;;;7.94;100.00;94161.31;5094281;28;20067;-63
2021/12/29 09:45:13;;;;;;;12.63;5.80;;;;;;;8.02;100.00;94160.97;5089935;28;20048;-62
2021/12/29 09:47:41;;;;;;;16.08;9.10;;;;;;;8.01;100.00;94164.56;5099569;28;20048;-62
2021/12/29 09:50:11;;;;;;;15.30;7.20;;;;;;;8.09;100.00;94163.44;5091603;28;20035;-63
2021/12/29 09:52:38;;;;;;;11.50;6.55;;;;;;;8.16;100.00;94154.50;5097232;28;20036;-62
2021/12/29 09:55:09;;;;;;;14.30;7.78;;;;;;;8.22;100.00;94153.56;5093704;28;20063;-62
2021/12/29 09:57:41;;;;;;;12.60;6.93;;;;;;;8.19;100.00;94148.84;5094658;28;20040;-63
2021/12/29 10:00:10;;;;;;;93.53;24.17;;;;;;;8.23;100.00;94144.75;5094232;28;20032;-63
2021/12/29 10:02:37;;;;;;;63.75;23.27;;;;;;;8.27;100.00;94139.91;5097014;28;20039;-63
2021/12/29 10:05:05;;;;;;;44.03;17.75;;;;;;;8.32;100.00;94141.78;5098164;28;20044;-63
2021/12/29 10:07:33;;;;;;;23.02;9.38;;;;;;;8.28;100.00;94145.88;5095308;28;20052;-63
2021/12/29 10:10:00;;;;;;;24.67;8.98;;;;;;;8.30;100.00;94134.25;5098579;28;21477;-63
2021/12/29 10:12:27;;;;;;;18.52;9.13;;;;;;;8.32;100.00;94136.59;5095231;28;20051;-63
2021/12/29 10:15:00;;;;;;;16.73;8.27;;;;;;;8.33;100.00;94127.78;5092849;28;20048;-63
2021/12/29 10:17:32;;;;;;;18.67;9.40;;;;;;;8.34;100.00;94124.19;5098576;28;20058;-62
2021/12/29 10:20:02;;;;;;;17.80;7.82;;;;;;;8.31;100.00;94116.88;5089590;28;20042;-62
2021/12/29 10:22:29;;;;;;;11.93;5.95;;;;;;;8.32;100.00;94121.81;5098227;28;20047;-62
2021/12/29 10:25:05;;;;;;;9.88;5.47;;;;;;;8.40;100.00;94107.69;5097302;28;20040;-62
2021/12/29 10:27:33;;;;;;;10.63;5.47;;;;;;;8.34;100.00;94106.03;5097628;28;20428;-62
2021/12/29 10:30:05;;;;;;;14.20;6.45;;;;;;;8.37;100.00;94102.94;5096437;28;20153;-62
2021/12/29 10:32:31;;;;;;;14.38;6.78;;;;;;;8.39;100.00;94095.72;5096728;28;20509;-62
2021/12/29 10:34:58;;;;;;;9.73;4.45;;;;;;;8.40;100.00;94097.28;5099286;28;20046;-62
2021/12/29 10:37:27;;;;;;;9.77;5.18;;;;;;;8.48;100.00;94090.94;5090830;28;20477;-62
2021/12/29 10:39:56;;;;;;;9.52;5.35;;;;;;;8.57;100.00;94092.13;5092475;28;20078;-62
2021/12/29 10:42:26;;;;;;;11.00;5.22;;;;;;;8.61;100.00;94093.25;5094021;28;20410;-62
2021/12/29 10:45:02;;;;;;;17.98;6.72;;;;;;;8.70;100.00;94086.63;5091623;28;20040;-62
2021/12/29 10:47:33;;;;;;;10.07;5.38;;;;;;;8.76;100.00;94090.09;5091229;28;20472;-62
2021/12/29 10:50:08;;;;;;;12.20;5.53;;;;;;;8.81;100.00;94082.38;5097673;28;20055;-62
2021/12/29 10:52:41;;;;;;;15.05;7.30;;;;;;;8.76;100.00;94074.50;5097077;28;20127;-62
2021/12/29 10:55:35;;;;;;;13.48;6.57;;;;;;;8.78;100.00;94082.84;5088245;27;20052;-65
2021/12/29 10:58:20;;;;;;;25.52;11.05;;;;;;;8.82;100.00;94083.16;5096576;28;20047;-62
2021/12/29 11:01:02;;;;;;;15.68;6.85;;;;;;;8.81;100.00;94087.56;5095904;28;20048;-62
2021/12/29 11:03:31;;;;;;;7.57;5.40;;;;;;;8.83;100.00;94084.75;5096071;28;20066;-62
2021/12/29 11:06:01;;;;;;;10.38;5.78;;;;;;;8.89;100.00;94084.56;5093660;28;20078;-62
2021/12/29 11:12:15;;;;;;;29.48;11.20;;;;;;;8.88;100.00;94083.00;5082227;27;20133;-60
2021/12/29 11:14:43;;;;;;;35.38;16.85;;;;;;;8.93;100.00;94075.28;5083741;28;20417;-61
2021/12/29 11:17:16;;;;;;;16.75;8.73;;;;;;;8.92;100.00;94073.72;5089152;28;20053;-61
2021/12/29 11:20:09;;;;;;;12.50;6.18;;;;;;;8.92;100.00;94068.50;5091467;28;20540;-62
2021/12/29 11:22:38;;;;;;;13.35;5.95;;;;;;;8.91;100.00;94066.97;5080249;28;20441;-62
2021/12/29 11:25:05;;;;;;;11.55;6.65;;;;;;;9.03;100.00;94063.47;5086168;28;20069;-61
2021/12/29 11:27:35;;;;;;;8.77;4.95;;;;;;;8.98;100.00;94059.78;5086092;28;20044;-62
2021/12/29 11:30:10;;;;;;;9.40;5.22;;;;;;;9.05;100.00;94058.81;5092786;28;20043;-62
2021/12/29 11:32:48;;;;;;;8.38;4.65;;;;;;;9.13;100.00;94053.22;5089142;28;20111;-62
2021/12/29 11:35:22;;;;;;;13.80;6.75;;;;;;;9.23;100.00;94053.31;5089841;28;20041;-62
2021/12/29 11:37:54;;;;;;;13.38;5.95;;;;;;;9.34;100.00;94044.63;5087895;28;20051;-61